createdAt,value
2018-03-04T00:01:30.985Z,63.57
2018-03-04T00:03:59.301Z,63.20
2018-03-04T00:06:26.662Z,65.23
2018-03-04T00:08:54.049Z,77.63
2018-03-04T00:11:21.455Z,63.53
2018-03-04T00:13:49.675Z,76.03
2018-03-04T00:16:17.031Z,65.40
2018-03-04T00:18:44.416Z,82.53
2018-03-04T00:21:11.826Z,64.27
2018-03-04T00:23:39.188Z,75.60
2018-03-04T00:26:06.542Z,75.53
2018-03-04T00:28:33.953Z,68.83
2018-03-04T00:31:01.354Z,60.37
2018-03-04T00:33:28.706Z,81.83
2018-03-04T00:35:56.238Z,76.90
2018-03-04T00:38:23.656Z,69.80
2018-03-04T00:40:51.049Z,64.80
2018-03-04T00:43:18.452Z,71.90
2018-03-04T00:45:45.849Z,63.67
2018-03-04T00:48:13.233Z,77.43
2018-03-04T00:50:40.593Z,84.63
2018-03-04T00:53:08.009Z,66.63
2018-03-04T00:55:35.413Z,66.90
2018-03-04T00:58:02.826Z,69.43
2018-03-04T01:00:30.205Z,76.97
2018-03-04T01:02:57.591Z,77.73
2018-03-04T01:05:24.966Z,72.83
2018-03-04T01:07:52.393Z,76.70
2018-03-04T01:10:19.757Z,82.60
2018-03-04T01:12:47.118Z,70.40
2018-03-04T01:15:14.538Z,90.47
2018-03-04T01:17:41.960Z,69.63
2018-03-04T01:20:09.336Z,67.07
2018-03-04T01:22:36.766Z,73.40
2018-03-04T01:25:04.154Z,77.53
2018-03-04T01:27:32.523Z,76.87
2018-03-04T01:29:59.941Z,78.47
2018-03-04T01:32:27.300Z,81.57
2018-03-04T01:34:54.674Z,75.93
2018-03-04T01:37:22.154Z,68.63
2018-03-04T01:39:49.558Z,81.37
2018-03-04T01:42:16.958Z,83.43
2018-03-04T01:44:44.312Z,91.67
2018-03-04T01:47:11.700Z,95.50
2018-03-04T01:49:39.097Z,94.13
2018-03-04T01:52:06.453Z,81.80
2018-03-04T01:54:33.860Z,81.47
2018-03-04T01:57:01.226Z,76.03
2018-03-04T01:59:28.643Z,77.90
2018-03-04T02:01:56.045Z,73.00
2018-03-04T02:04:23.444Z,78.20
2018-03-04T02:06:50.813Z,82.53
2018-03-04T02:09:19.210Z,80.47
2018-03-04T02:11:46.617Z,76.87
2018-03-04T02:14:13.990Z,78.53
2018-03-04T02:16:41.388Z,71.47
2018-03-04T02:19:08.777Z,79.40
2018-03-04T02:21:36.178Z,92.07
2018-03-04T02:24:03.606Z,88.50
2018-03-04T02:26:30.985Z,71.43
2018-03-04T02:28:58.402Z,79.70
2018-03-04T02:31:25.811Z,73.03
2018-03-04T02:33:53.225Z,92.70
2018-03-04T02:36:20.592Z,82.73
2018-03-04T02:38:48.004Z,80.10
2018-03-04T02:41:15.366Z,73.20
2018-03-04T02:43:42.877Z,81.73
2018-03-04T02:46:10.269Z,83.57
2018-03-04T02:48:37.625Z,88.70
2018-03-04T02:51:05.016Z,86.70
2018-03-04T02:53:32.393Z,84.30
2018-03-04T02:55:59.807Z,86.93
2018-03-04T02:58:27.170Z,77.07
2018-03-04T03:00:54.560Z,85.13
2018-03-04T03:03:22.029Z,91.57
2018-03-04T03:05:49.385Z,82.73
2018-03-04T03:08:16.754Z,91.63
2018-03-04T03:10:44.164Z,95.17
2018-03-04T03:13:11.521Z,79.30
2018-03-04T03:15:38.985Z,78.43
2018-03-04T03:18:06.351Z,71.90
2018-03-04T03:20:33.742Z,85.97
2018-03-04T03:23:01.162Z,87.67
2018-03-04T03:25:28.529Z,82.57
2018-03-04T03:27:55.921Z,93.57
2018-03-04T03:30:23.335Z,90.73
2018-03-04T03:32:50.753Z,89.60
2018-03-04T03:35:18.149Z,87.13
2018-03-04T03:37:45.553Z,84.90
2018-03-04T03:40:12.949Z,80.67
2018-03-04T03:42:40.361Z,99.03
2018-03-04T03:45:07.714Z,80.47
2018-03-04T03:47:35.133Z,88.70
2018-03-04T03:50:02.517Z,79.67
2018-03-04T03:52:29.878Z,85.53
2018-03-04T03:54:57.265Z,85.23
2018-03-04T03:57:24.670Z,90.13
2018-03-04T03:59:52.033Z,89.70
2018-03-04T04:02:19.442Z,81.30
2018-03-04T04:04:46.841Z,100.33
2018-03-04T04:07:14.249Z,98.77
2018-03-04T04:09:41.631Z,92.90
2018-03-04T04:12:09.036Z,90.77
2018-03-04T04:14:36.394Z,76.23
2018-03-04T04:17:03.771Z,85.33
2018-03-04T04:19:31.157Z,91.00
2018-03-04T04:21:58.552Z,98.50
2018-03-04T04:24:25.936Z,88.67
2018-03-04T04:26:53.300Z,85.73
2018-03-04T04:29:20.706Z,95.70
2018-03-04T04:31:48.091Z,91.90
2018-03-04T04:34:15.477Z,89.63
2018-03-04T04:36:42.841Z,100.50
2018-03-04T04:39:10.226Z,92.80
2018-03-04T04:41:37.584Z,87.20
2018-03-04T04:44:04.981Z,100.50
2018-03-04T04:46:32.376Z,91.17
2018-03-04T04:48:59.730Z,86.20
2018-03-04T04:51:27.094Z,93.07
2018-03-04T04:53:54.514Z,89.07
2018-03-04T04:56:21.873Z,84.80
2018-03-04T04:58:49.224Z,87.03
2018-03-04T05:01:16.634Z,103.67
2018-03-04T05:03:43.992Z,107.00
2018-03-04T05:06:11.457Z,90.57
2018-03-04T05:08:38.833Z,98.20
2018-03-04T05:11:07.132Z,94.07
2018-03-04T05:13:34.521Z,102.67
2018-03-04T05:16:01.898Z,104.90
2018-03-04T05:18:29.296Z,85.40
2018-03-04T05:20:56.666Z,103.10
2018-03-04T05:23:24.063Z,92.93
2018-03-04T05:25:51.483Z,96.70
2018-03-04T05:28:18.846Z,90.17
2018-03-04T05:30:46.206Z,108.07
2018-03-04T05:33:13.617Z,98.13
2018-03-04T05:35:40.985Z,85.83
2018-03-04T05:38:08.345Z,92.13
2018-03-04T05:40:35.764Z,98.30
2018-03-04T05:43:03.129Z,97.23
2018-03-04T05:45:30.510Z,109.27
2018-03-04T05:47:57.908Z,85.07
2018-03-04T05:50:25.274Z,100.87
2018-03-04T05:52:52.744Z,96.90
2018-03-04T05:55:20.333Z,95.00
2018-03-04T05:57:47.706Z,92.27
2018-03-04T06:00:15.097Z,94.13
2018-03-04T06:02:42.506Z,90.37
2018-03-04T06:05:09.882Z,90.00
2018-03-04T06:07:37.260Z,95.77
2018-03-04T06:10:04.667Z,86.63
2018-03-04T06:12:32.025Z,81.17
2018-03-04T06:14:59.382Z,94.80
2018-03-04T06:17:26.797Z,88.43
2018-03-04T06:19:54.248Z,91.77
2018-03-04T06:22:21.622Z,83.03
2018-03-04T06:24:49.027Z,94.23
2018-03-04T06:27:16.399Z,91.60
2018-03-04T06:29:43.791Z,97.13
2018-03-04T06:32:11.193Z,78.80
2018-03-04T06:34:38.600Z,84.80
2018-03-04T06:37:05.972Z,89.87
2018-03-04T06:39:33.430Z,86.63
2018-03-04T06:42:00.794Z,99.30
2018-03-04T06:44:28.166Z,92.27
2018-03-04T06:46:55.561Z,87.67
2018-03-04T06:49:22.922Z,85.70
2018-03-04T06:51:50.332Z,87.47
2018-03-04T06:54:17.722Z,81.87
2018-03-04T06:56:45.225Z,82.80
2018-03-04T06:59:12.613Z,94.43
2018-03-04T07:01:39.981Z,83.50
2018-03-04T07:04:07.576Z,93.97
2018-03-04T07:06:34.942Z,91.23
2018-03-04T07:09:02.797Z,98.07
2018-03-04T07:11:30.196Z,93.57
2018-03-04T07:13:57.586Z,101.33
2018-03-04T07:16:24.974Z,84.17
2018-03-04T07:18:52.381Z,91.53
2018-03-04T07:21:20.690Z,84.13
2018-03-04T07:23:48.220Z,81.40
2018-03-04T07:26:15.590Z,81.70
2018-03-04T07:28:42.984Z,89.87
2018-03-04T07:31:10.390Z,83.63
2018-03-04T07:33:37.762Z,87.80
2018-03-04T07:36:05.130Z,94.77
2018-03-04T07:38:32.533Z,74.63
2018-03-04T07:40:59.889Z,80.87
2018-03-04T07:43:27.322Z,80.57
2018-03-04T07:45:54.682Z,80.77
2018-03-04T07:48:22.041Z,81.90
2018-03-04T07:50:49.436Z,91.97
2018-03-04T07:53:16.820Z,91.97
2018-03-04T07:55:44.180Z,90.03
2018-03-04T07:58:11.576Z,85.00
2018-03-04T08:00:38.969Z,81.83
2018-03-04T08:03:06.362Z,71.77
2018-03-04T08:05:33.744Z,96.83
2018-03-04T08:08:01.276Z,87.83
2018-03-04T08:10:28.632Z,88.03
2018-03-04T08:12:55.986Z,87.17
2018-03-04T08:15:23.373Z,80.70
2018-03-04T08:17:50.741Z,78.07
2018-03-04T08:20:18.094Z,83.57
2018-03-04T08:22:45.798Z,90.83
2018-03-04T08:25:19.097Z,78.13
2018-03-04T08:27:53.430Z,84.57
2018-03-04T08:30:20.790Z,86.97
2018-03-04T08:32:48.177Z,79.87
2018-03-04T08:35:15.543Z,94.47
2018-03-04T08:37:42.913Z,87.33
2018-03-04T08:40:10.397Z,79.43
2018-03-04T08:42:37.785Z,88.23
2018-03-04T08:45:05.221Z,75.90
2018-03-04T08:47:32.600Z,84.17
2018-03-04T08:50:00.927Z,83.33
2018-03-04T08:52:28.317Z,88.13
2018-03-04T08:54:55.689Z,87.27
2018-03-04T08:57:23.093Z,85.50
2018-03-04T08:59:50.457Z,79.23
2018-03-04T09:02:17.840Z,87.03
2018-03-04T09:04:45.268Z,84.87
2018-03-04T09:07:12.627Z,88.27
2018-03-04T09:09:40.097Z,80.83
2018-03-04T09:12:07.509Z,83.70
2018-03-04T09:14:34.926Z,80.47
2018-03-04T09:17:02.287Z,96.73
2018-03-04T09:19:29.650Z,89.17
2018-03-04T09:21:57.041Z,82.50
2018-03-04T09:24:24.396Z,76.60
2018-03-04T09:26:51.805Z,83.70
2018-03-04T09:29:19.174Z,80.33
2018-03-04T09:31:46.648Z,83.37
2018-03-04T09:34:13.993Z,84.93
2018-03-04T09:36:41.440Z,95.63
2018-03-04T09:39:08.797Z,71.30
2018-03-04T09:41:36.179Z,88.93
2018-03-04T09:44:03.581Z,87.30
2018-03-04T09:46:30.942Z,88.07
2018-03-04T09:48:58.343Z,86.40
2018-03-04T09:51:25.751Z,85.97
2018-03-04T09:53:53.191Z,88.83
2018-03-04T09:56:20.706Z,79.20
2018-03-04T09:58:48.060Z,77.40
2018-03-04T10:01:15.482Z,80.33
2018-03-04T10:03:42.843Z,88.87
2018-03-04T10:06:10.201Z,87.07
2018-03-04T10:08:37.607Z,78.30
2018-03-04T10:11:04.965Z,78.10
2018-03-04T10:13:32.362Z,84.30
2018-03-04T10:15:59.714Z,80.40
2018-03-04T10:18:27.101Z,90.43
2018-03-04T10:20:54.483Z,88.00
2018-03-04T10:23:21.881Z,89.20
2018-03-04T10:25:49.298Z,94.00
2018-03-04T10:28:16.664Z,107.63
2018-03-04T10:30:44.060Z,86.13
2018-03-04T10:33:11.422Z,79.47
2018-03-04T10:35:38.775Z,94.50
2018-03-04T10:38:06.177Z,111.80
2018-03-04T10:40:33.533Z,81.80
2018-03-04T10:43:00.936Z,88.80
2018-03-04T10:45:28.293Z,92.90
2018-03-04T10:47:55.653Z,78.80
2018-03-04T10:50:23.061Z,90.13
2018-03-04T10:52:50.418Z,87.30
2018-03-04T10:55:17.805Z,82.47
2018-03-04T10:57:45.186Z,79.37
2018-03-04T11:00:12.577Z,89.87
2018-03-04T11:02:41.923Z,85.73
2018-03-04T11:05:09.313Z,84.00
2018-03-04T11:07:36.758Z,85.00
2018-03-04T11:10:04.146Z,85.03
2018-03-04T11:12:31.541Z,86.30
2018-03-04T11:14:58.909Z,85.70
2018-03-04T11:17:26.320Z,88.37
2018-03-04T11:19:53.687Z,81.77
2018-03-04T11:22:21.055Z,81.40
2018-03-04T11:24:48.485Z,77.57
2018-03-04T11:27:15.877Z,88.07
2018-03-04T11:29:43.289Z,93.83
2018-03-04T11:32:10.748Z,91.77
2018-03-04T11:34:38.097Z,84.97
2018-03-04T11:37:05.472Z,88.10
2018-03-04T11:39:32.862Z,90.80
2018-03-04T11:42:00.217Z,87.47
2018-03-04T11:44:27.623Z,96.10
2018-03-04T11:46:54.977Z,89.97
2018-03-04T11:49:22.457Z,99.30
2018-03-04T11:51:50.384Z,88.00
2018-03-04T11:54:17.790Z,90.17
2018-03-04T11:56:45.210Z,84.83
2018-03-04T11:59:13.153Z,89.90
2018-03-04T12:01:40.515Z,84.53
2018-03-04T12:04:09.373Z,86.07
2018-03-04T12:06:36.760Z,89.43
2018-03-04T12:09:05.058Z,97.27
2018-03-04T12:11:32.455Z,85.07
2018-03-04T12:14:00.585Z,90.30
2018-03-04T12:16:27.957Z,88.93
2018-03-04T12:18:55.430Z,92.10
2018-03-04T12:21:22.797Z,86.83
2018-03-04T12:23:50.165Z,86.03
2018-03-04T12:26:17.582Z,94.53
2018-03-04T12:28:45.077Z,87.53
2018-03-04T12:31:12.448Z,84.33
2018-03-04T12:33:39.881Z,96.70
2018-03-04T12:36:07.247Z,83.77
2018-03-04T12:38:34.803Z,79.10
2018-03-04T12:41:02.222Z,88.20
2018-03-04T12:43:29.590Z,86.03
2018-03-04T12:45:57.027Z,83.03
2018-03-04T12:48:24.397Z,85.77
2018-03-04T12:50:51.751Z,85.33
2018-03-04T12:53:19.279Z,82.43
2018-03-04T12:55:46.665Z,79.97
2018-03-04T12:58:14.035Z,83.70
2018-03-04T13:00:41.431Z,87.43
2018-03-04T13:03:09.865Z,83.53
2018-03-04T13:05:37.310Z,84.90
2018-03-04T13:08:04.858Z,84.97
2018-03-04T13:10:32.276Z,85.70
2018-03-04T13:13:00.779Z,85.33
2018-03-04T13:17:55.487Z,88.47
2018-03-04T13:20:23.048Z,85.97
2018-03-04T13:22:50.607Z,105.87
2018-03-04T13:25:18.575Z,82.97
2018-03-04T13:27:45.998Z,83.13
2018-03-04T13:30:13.434Z,84.20
2018-03-04T13:32:40.887Z,81.10
2018-03-04T13:35:08.444Z,86.93
2018-03-04T13:37:35.877Z,81.60
2018-03-04T13:40:03.524Z,82.93
2018-03-04T13:42:30.933Z,77.90
2018-03-04T13:44:58.336Z,81.17
2018-03-04T13:47:25.793Z,75.80
2018-03-04T13:49:53.194Z,78.40
2018-03-04T13:52:20.593Z,80.10
2018-03-04T13:54:47.965Z,71.37
2018-03-04T13:57:15.359Z,74.30
2018-03-04T13:59:42.976Z,81.03
2018-03-04T14:02:11.378Z,70.93
2018-03-04T14:04:38.809Z,72.00
2018-03-04T14:07:06.268Z,78.00
2018-03-04T14:09:33.687Z,83.40
2018-03-04T14:12:02.134Z,77.80
2018-03-04T14:14:29.509Z,74.00
2018-03-04T14:16:56.901Z,75.83
2018-03-04T14:19:24.325Z,76.50
2018-03-04T14:21:51.730Z,76.00
2018-03-04T14:24:19.135Z,80.50
2018-03-04T14:26:46.511Z,78.73
2018-03-04T14:29:13.873Z,79.77
2018-03-04T14:31:41.291Z,82.80
2018-03-04T14:34:08.649Z,83.00
2018-03-04T14:36:36.082Z,81.70
2018-03-04T14:39:04.203Z,77.90
2018-03-04T14:41:31.593Z,75.37
2018-03-04T14:43:58.949Z,81.50
2018-03-04T14:46:26.367Z,82.07
2018-03-04T14:48:53.738Z,76.00
2018-03-04T14:51:21.126Z,73.63
2018-03-04T14:53:48.525Z,81.87
2018-03-04T14:56:15.919Z,89.53
2018-03-04T14:58:43.285Z,78.13
2018-03-04T15:01:10.682Z,78.47
2018-03-04T15:03:38.068Z,76.80
2018-03-04T15:06:05.465Z,73.10
2018-03-04T15:08:32.854Z,86.17
2018-03-04T15:11:00.212Z,75.70
2018-03-04T15:13:27.609Z,83.40
2018-03-04T15:15:54.970Z,83.23
2018-03-04T15:18:22.360Z,84.80
2018-03-04T15:20:49.745Z,79.87
2018-03-04T15:23:17.153Z,76.83
2018-03-04T15:25:44.554Z,89.03
2018-03-04T15:28:11.931Z,81.83
2018-03-04T15:30:39.294Z,80.27
2018-03-04T15:33:06.698Z,77.47
2018-03-04T15:35:34.064Z,78.53
2018-03-04T15:38:01.474Z,88.40
2018-03-04T15:40:28.890Z,81.67
2018-03-04T15:42:56.253Z,83.00
2018-03-04T15:45:23.626Z,84.23
2018-03-04T15:47:51.034Z,82.70
2018-03-04T15:50:18.389Z,80.47
2018-03-04T15:52:45.777Z,83.47
2018-03-04T15:55:13.225Z,84.73
2018-03-04T15:57:41.571Z,85.13
2018-03-04T16:00:08.947Z,80.60
2018-03-04T16:02:36.315Z,87.97
2018-03-04T16:05:04.642Z,86.07
2018-03-04T16:07:32.017Z,80.80
2018-03-04T16:09:59.472Z,81.67
2018-03-04T16:12:26.842Z,83.63
2018-03-04T16:14:54.238Z,87.70
2018-03-04T16:17:21.597Z,86.37
2018-03-04T16:19:48.953Z,91.83
2018-03-04T16:22:16.371Z,84.00
2018-03-04T16:24:43.767Z,83.17
2018-03-04T16:27:11.128Z,88.13
2018-03-04T16:29:38.537Z,84.20
2018-03-04T16:32:05.907Z,92.27
2018-03-04T16:34:33.341Z,92.50
2018-03-04T16:37:00.847Z,87.10
2018-03-04T16:39:28.250Z,89.80
2018-03-04T16:41:55.755Z,78.07
2018-03-04T16:44:23.198Z,79.83
2018-03-04T16:46:50.772Z,93.13
2018-03-04T16:49:18.146Z,85.40
2018-03-04T16:51:46.407Z,90.87
2018-03-04T16:54:13.985Z,82.37
2018-03-04T16:56:41.346Z,86.43
2018-03-04T16:59:08.703Z,82.90
2018-03-04T17:01:36.537Z,78.27
2018-03-04T17:04:03.961Z,88.73
2018-03-04T17:06:31.492Z,77.43
2018-03-04T17:08:58.940Z,73.63
2018-03-04T17:11:26.377Z,79.23
2018-03-04T17:13:53.761Z,92.87
2018-03-04T17:16:21.322Z,79.30
2018-03-04T17:18:48.908Z,79.70
2018-03-04T17:21:16.398Z,85.90
2018-03-04T17:23:43.855Z,71.47
2018-03-04T17:26:11.518Z,75.00
2018-03-04T17:28:39.296Z,73.40
2018-03-04T17:31:06.785Z,74.33
2018-03-04T17:33:47.000Z,72.87
2018-03-04T17:36:14.453Z,77.90
2018-03-04T17:38:42.012Z,71.47
2018-03-04T17:41:09.469Z,76.67
2018-03-04T17:43:37.030Z,71.70
2018-03-04T17:46:05.009Z,75.57
2018-03-04T17:48:32.968Z,74.90
2018-03-04T17:51:00.709Z,76.73
2018-03-04T17:53:28.068Z,73.23
2018-03-04T17:55:55.646Z,70.47
2018-03-04T17:58:23.088Z,76.07
2018-03-04T18:00:50.471Z,72.23
2018-03-04T18:03:17.875Z,77.17
2018-03-04T18:05:45.233Z,77.93
2018-03-04T18:08:12.627Z,76.67
2018-03-04T18:10:40.041Z,74.87
2018-03-04T18:13:07.469Z,73.27
2018-03-04T18:15:34.919Z,77.93
2018-03-04T18:18:02.294Z,83.33
2018-03-04T18:20:29.712Z,84.83
2018-03-04T18:22:57.129Z,84.23
2018-03-04T18:25:24.522Z,80.57
2018-03-04T18:27:52.003Z,75.97
2018-03-04T18:30:19.448Z,85.17
2018-03-04T18:32:47.279Z,75.67
2018-03-04T18:35:14.686Z,83.73
2018-03-04T18:37:42.211Z,79.07
2018-03-04T18:40:09.646Z,86.33
2018-03-04T18:42:37.227Z,84.60
2018-03-04T18:45:04.605Z,81.20
2018-03-04T18:47:32.040Z,88.23
2018-03-04T18:49:59.702Z,84.77
2018-03-04T18:52:27.364Z,79.80
2018-03-04T18:54:55.228Z,77.33
2018-03-04T18:57:23.096Z,84.50
2018-03-04T18:59:50.658Z,84.53
2018-03-04T19:02:18.087Z,88.23
2018-03-04T19:04:45.549Z,84.40
2018-03-04T19:07:12.961Z,93.63
2018-03-04T19:09:40.399Z,88.33
2018-03-04T19:12:07.791Z,105.23
2018-03-04T19:14:35.172Z,81.37
2018-03-04T19:17:02.577Z,89.70
2018-03-04T19:19:29.958Z,90.97
2018-03-04T19:21:57.463Z,91.57
2018-03-04T19:24:25.061Z,95.23
2018-03-04T19:26:52.423Z,92.93
2018-03-04T19:29:19.872Z,91.60
2018-03-04T19:31:47.236Z,89.27
2018-03-04T19:34:14.747Z,115.50
2018-03-04T19:36:42.146Z,88.13
2018-03-04T19:39:10.071Z,97.27
2018-03-04T19:41:37.491Z,109.00
2018-03-04T19:44:14.021Z,105.53
2018-03-04T19:46:44.322Z,105.10
2018-03-04T19:49:11.833Z,95.73
2018-03-04T19:51:39.543Z,96.50
2018-03-04T19:54:07.260Z,100.30
2018-03-04T19:56:34.937Z,100.17
2018-03-04T19:59:02.369Z,102.53
2018-03-04T20:01:30.087Z,91.43
2018-03-04T20:03:57.602Z,103.63
2018-03-04T20:06:25.289Z,104.43
2018-03-04T20:08:52.970Z,102.77
2018-03-04T20:11:20.735Z,102.90
2018-03-04T20:13:48.232Z,106.20
2018-03-04T20:16:15.647Z,105.03
2018-03-04T20:18:43.311Z,113.20
2018-03-04T20:21:10.731Z,105.53
2018-03-04T20:23:38.263Z,105.90
2018-03-04T20:26:05.678Z,110.47
2018-03-04T20:28:33.065Z,109.73
2018-03-04T20:31:00.490Z,98.90
2018-03-04T20:33:28.156Z,89.97
2018-03-04T20:35:55.614Z,115.37
2018-03-04T20:38:23.021Z,97.17
2018-03-04T20:40:50.425Z,97.27
2018-03-04T20:43:17.853Z,110.93
2018-03-04T20:45:45.340Z,109.50
2018-03-04T20:48:12.765Z,111.60
2018-03-04T20:50:40.206Z,131.33
2018-03-04T20:53:07.578Z,102.37
2018-03-04T20:55:35.013Z,112.97
2018-03-04T20:58:02.403Z,100.47
2018-03-04T21:00:29.880Z,105.47
2018-03-04T21:02:57.306Z,110.60
2018-03-04T21:05:24.694Z,97.17
2018-03-04T21:07:52.113Z,99.77
2018-03-04T21:10:19.519Z,99.67
2018-03-04T21:15:30.734Z,103.83
2018-03-04T21:17:58.112Z,111.83
2018-03-04T21:20:25.477Z,111.07
2018-03-04T21:22:53.069Z,100.73
2018-03-04T21:25:20.489Z,104.20
2018-03-04T21:27:47.859Z,110.83
2018-03-04T21:30:15.251Z,96.93
2018-03-04T21:32:42.690Z,111.77
2018-03-04T21:35:10.098Z,104.20
2018-03-04T21:37:37.460Z,102.27
2018-03-04T21:40:04.893Z,107.33
2018-03-04T21:42:32.252Z,100.03
2018-03-04T21:44:59.645Z,108.37
2018-03-04T21:47:27.066Z,99.27
2018-03-04T21:49:54.425Z,109.07
2018-03-04T21:52:21.834Z,99.63
2018-03-04T21:54:49.309Z,107.60
2018-03-04T21:57:16.712Z,91.93
2018-03-04T21:59:44.076Z,97.83
2018-03-04T22:02:11.459Z,103.43
2018-03-04T22:04:40.348Z,108.43
2018-03-04T22:07:07.758Z,102.20
2018-03-04T22:09:35.129Z,101.27
2018-03-04T22:12:02.571Z,101.30
2018-03-04T22:14:29.968Z,95.80
2018-03-04T22:16:57.343Z,104.90
2018-03-04T22:19:24.748Z,110.03
2018-03-04T22:21:52.111Z,103.33
2018-03-04T22:24:19.498Z,102.03
2018-03-04T22:26:46.891Z,97.80
2018-03-04T22:29:14.267Z,116.27
2018-03-04T22:31:41.676Z,95.40
2018-03-04T22:34:09.114Z,96.97
2018-03-04T22:36:36.530Z,103.87
2018-03-04T22:39:04.289Z,105.30
2018-03-04T22:41:31.711Z,98.60
2018-03-04T22:43:59.109Z,100.63
2018-03-04T22:46:26.510Z,96.00
2018-03-04T22:48:53.933Z,100.87
2018-03-04T22:51:21.316Z,93.50
2018-03-04T22:53:48.729Z,100.80
2018-03-04T22:56:16.133Z,102.00
2018-03-04T22:58:43.505Z,100.90
2018-03-04T23:01:10.911Z,108.10
2018-03-04T23:03:38.341Z,94.27
2018-03-04T23:06:05.738Z,105.83
2018-03-04T23:08:33.149Z,103.40
2018-03-04T23:11:00.562Z,99.93
2018-03-04T23:13:27.976Z,103.80
2018-03-04T23:15:55.350Z,99.13
2018-03-04T23:18:22.768Z,101.77
2018-03-04T23:20:50.134Z,106.77
2018-03-04T23:23:17.586Z,115.77
2018-03-04T23:25:45.002Z,92.50
2018-03-04T23:28:12.413Z,103.37
2018-03-04T23:30:39.793Z,100.40
2018-03-04T23:33:07.215Z,96.93
2018-03-04T23:35:34.597Z,101.23
2018-03-04T23:38:02.021Z,91.10
2018-03-04T23:40:29.412Z,95.63
2018-03-04T23:42:56.773Z,93.73
2018-03-04T23:45:24.129Z,96.00
2018-03-04T23:47:51.530Z,97.07
2018-03-04T23:50:18.895Z,100.60
2018-03-04T23:52:46.290Z,97.07
2018-03-04T23:55:13.650Z,99.07
2018-03-04T23:57:41.050Z,99.10
